Time;durP1;ratioP1;P1;durP2;ratioP2;P2;SDS_P1;SDS_P2;PMS_P1;PMS_P2;Temp;Humidity;BMP_temperature;BMP_pressure;BME280_temperature;BME280_humidity;BME280_pressure;Samples;Min_cycle;Max_cycle;Signal;HPM_P1;HPM_P2
2022/07/29 00:00:24;;;;;;;9.50;2.33;;;;;;;22.76;35.24;100972.66;5060611;28;20109;-70
2022/07/29 00:02:51;;;;;;;6.35;2.10;;;;;;;22.62;35.49;100975.34;5086763;28;20048;-71
2022/07/29 00:05:20;;;;;;;6.75;2.08;;;;;;;22.87;35.03;100969.94;5074562;28;20076;-72
2022/07/29 00:07:47;;;;;;;9.65;2.15;;;;;;;22.95;34.85;100969.59;5075047;28;20060;-73
2022/07/29 00:10:15;;;;;;;16.27;2.88;;;;;;;23.00;35.07;100966.41;5079267;28;20048;-71
2022/07/29 00:12:42;;;;;;;12.73;2.22;;;;;;;23.04;34.95;100961.63;5061880;28;20499;-70
2022/07/29 00:15:10;;;;;;;9.20;2.38;;;;;;;22.84;35.02;100956.66;5076843;28;20056;-73
2022/07/29 00:17:38;;;;;;;12.77;2.10;;;;;;;22.69;35.35;100954.94;5091859;28;20048;-73
2022/07/29 00:20:06;;;;;;;6.97;1.90;;;;;;;22.56;35.60;100953.63;5093652;28;20060;-72
2022/07/29 00:22:37;;;;;;;16.63;1.95;;;;;;;22.40;35.85;100958.66;5092553;28;20055;-72
2022/07/29 00:25:07;;;;;;;8.70;2.03;;;;;;;22.47;35.77;100959.56;5086200;28;20049;-70
2022/07/29 00:27:35;;;;;;;12.38;2.05;;;;;;;22.48;35.90;100958.34;5083770;28;20052;-70
2022/07/29 00:30:04;;;;;;;6.13;2.17;;;;;;;22.59;35.63;100948.06;5084705;28;20056;-73
2022/07/29 00:32:31;;;;;;;5.68;2.00;;;;;;;22.48;35.77;100949.91;5091332;28;20047;-72
2022/07/29 00:37:45;;;;;;;9.88;2.17;;;;;;;22.05;36.70;100948.72;5088079;28;20052;-73
2022/07/29 00:40:12;;;;;;;10.45;2.45;;;;;;;22.03;36.96;100944.69;5086492;28;20059;-70
2022/07/29 00:42:47;;;;;;;7.93;2.47;;;;;;;21.96;37.13;100944.59;5059869;28;20051;-73
2022/07/29 00:45:15;;;;;;;11.07;2.42;;;;;;;22.12;36.90;100950.78;5080170;28;20051;-70
2022/07/29 00:47:43;;;;;;;7.93;2.10;;;;;;;22.13;36.49;100944.78;5085075;28;20063;-70
2022/07/29 00:50:12;;;;;;;8.85;2.60;;;;;;;22.08;36.82;100947.13;5060007;28;20045;-70
2022/07/29 00:52:40;;;;;;;6.28;2.72;;;;;;;21.81;37.46;100946.44;5036211;28;20516;-69
2022/07/29 00:55:11;;;;;;;7.28;2.22;;;;;;;21.83;37.33;100948.84;5055418;28;20059;-70
2022/07/29 00:57:38;;;;;;;;;;;;;;;21.97;37.12;100944.22;5076704;28;20075;-70
2022/07/29 01:00:08;;;;;;;10.15;2.20;;;;;;;22.08;36.75;100941.53;5077228;28;19921;-73
2022/07/29 01:02:36;;;;;;;10.52;2.20;;;;;;;21.71;37.96;100935.06;5089670;28;20052;-70
2022/07/29 01:05:04;;;;;;;6.63;2.30;;;;;;;21.37;38.74;100950.28;5074260;28;20044;-69
2022/07/29 01:07:34;;;;;;;9.63;2.35;;;;;;;21.70;38.28;100939.88;5073094;28;20060;-69
2022/07/29 01:10:05;;;;;;;9.07;2.17;;;;;;;21.80;38.10;100947.63;5074631;28;20053;-70
2022/07/29 01:12:34;;;;;;;9.80;2.63;;;;;;;21.68;38.08;100942.25;5086083;28;20391;-70
2022/07/29 01:15:03;;;;;;;5.88;1.88;;;;;;;21.70;38.05;100945.50;5077592;28;20052;-70
2022/07/29 01:17:48;;;;;;;11.43;2.15;;;;;;;21.91;37.75;100934.56;5087116;28;20053;-73
2022/07/29 01:20:26;;;;;;;4.88;1.85;;;;;;;21.89;37.82;100936.94;5075235;28;20051;-72
2022/07/29 01:23:07;;;;;;;8.80;2.40;;;;;;;21.94;38.03;100935.75;5085911;28;20523;-72
2022/07/29 01:26:06;;;;;;;11.07;2.50;;;;;;;22.10;37.59;100934.34;5069653;28;20049;-70
2022/07/29 01:28:43;;;;;;;7.15;1.95;;;;;;;22.15;37.49;100939.59;5081882;28;20063;-71
2022/07/29 01:31:19;;;;;;;7.57;2.22;;;;;;;22.15;37.00;100947.22;5060478;28;20048;-70
2022/07/29 01:34:01;;;;;;;8.60;2.15;;;;;;;22.28;37.04;100951.34;5058592;28;20063;-69
2022/07/29 01:36:37;;;;;;;10.48;2.40;;;;;;;22.21;37.21;100942.88;5063750;28;20049;-73
2022/07/29 01:39:22;;;;;;;11.52;2.47;;;;;;;22.28;37.51;100946.53;5073257;28;20408;-72
2022/07/29 01:41:56;;;;;;;8.77;2.60;;;;;;;22.24;38.24;100948.53;5090304;28;20063;-70
2022/07/29 01:44:33;;;;;;;9.77;2.67;;;;;;;22.27;38.42;100947.75;5081548;28;20043;-70
2022/07/29 01:47:06;;;;;;;5.60;2.40;;;;;;;22.29;38.85;100953.78;5066177;28;20048;-70
2022/07/29 01:49:36;;;;;;;8.45;2.47;;;;;;;22.07;39.73;100951.16;5052261;28;20048;-70
2022/07/29 01:52:05;;;;;;;;;;;;;;;21.93;40.07;100951.78;5068144;28;20040;-73
2022/07/29 01:54:37;;;;;;;8.82;3.38;;;;;;;21.76;40.58;100952.38;5076809;28;19935;-72
2022/07/29 01:57:07;;;;;;;10.68;3.28;;;;;;;21.83;40.51;100963.69;5089034;28;20526;-73
2022/07/29 01:59:35;;;;;;;10.05;3.15;;;;;;;21.83;40.75;100963.69;5080267;28;20048;-72
2022/07/29 02:02:04;;;;;;;10.10;2.88;;;;;;;21.91;40.61;100951.38;5067120;28;20060;-70
2022/07/29 02:04:33;;;;;;;6.93;2.85;;;;;;;21.71;40.63;100955.50;5052497;28;20040;-73
2022/07/29 02:07:05;;;;;;;10.13;2.85;;;;;;;21.45;41.50;100965.97;5065729;28;20520;-70
2022/07/29 02:09:35;;;;;;;13.80;3.20;;;;;;;21.55;41.07;100957.72;5074057;28;20060;-71
2022/07/29 02:12:03;;;;;;;8.23;3.55;;;;;;;21.44;41.41;100953.97;5076441;28;20048;-73
2022/07/29 02:14:34;;;;;;;10.10;2.78;;;;;;;21.57;41.17;100960.13;5070439;28;20040;-73
2022/07/29 02:17:02;;;;;;;9.57;3.33;;;;;;;21.65;40.76;100951.44;5069476;28;20089;-74
2022/07/29 02:19:32;;;;;;;8.88;2.80;;;;;;;21.71;41.16;100946.28;5084887;28;20044;-72
2022/07/29 02:22:00;;;;;;;6.43;2.90;;;;;;;21.69;41.31;100955.09;5083730;28;20056;-73
2022/07/29 02:24:28;;;;;;;7.90;3.08;;;;;;;21.55;41.25;100963.31;5087303;28;20056;-70
2022/07/29 02:26:56;;;;;;;11.25;6.38;;;;;;;21.58;41.14;100961.75;5068344;28;20052;-73
2022/07/29 02:29:26;;;;;;;16.98;7.70;;;;;;;21.57;41.43;100966.56;5076138;28;20062;-73
2022/07/29 02:31:54;;;;;;;13.13;4.53;;;;;;;21.41;41.94;100965.94;5091035;28;20051;-73
2022/07/29 02:34:23;;;;;;;9.00;2.88;;;;;;;21.57;41.66;100951.72;5083735;28;20052;-73
2022/07/29 02:36:50;;;;;;;8.70;3.03;;;;;;;21.50;41.86;100966.47;5076008;28;20063;-73
2022/07/29 02:39:19;;;;;;;8.20;2.70;;;;;;;21.47;41.76;100963.59;5084700;28;20048;-72
2022/07/29 02:41:52;;;;;;;6.30;2.92;;;;;;;21.32;42.31;100967.41;5088804;28;20056;-70
2022/07/29 02:44:24;;;;;;;8.70;2.72;;;;;;;21.12;42.85;100972.34;5067677;28;20045;-72
2022/07/29 02:46:56;;;;;;;10.35;2.50;;;;;;;20.98;43.40;100966.50;5090118;28;20075;-72
2022/07/29 02:49:47;;;;;;;6.35;2.60;;;;;;;20.92;43.45;100965.22;5061711;28;20095;-72
2022/07/29 02:52:20;;;;;;;7.88;2.95;;;;;;;20.97;43.17;100962.88;5068803;28;20041;-71
2022/07/29 02:54:59;;;;;;;9.05;2.90;;;;;;;20.89;43.68;100968.75;5082798;28;20063;-71
2022/07/29 02:57:35;;;;;;;5.75;2.58;;;;;;;20.79;43.54;100963.81;5084480;28;20060;-72
2022/07/29 03:00:24;;;;;;;6.60;2.72;;;;;;;20.78;43.78;100973.41;5072323;28;20057;-72
2022/07/29 03:02:54;;;;;;;9.00;2.85;;;;;;;20.68;43.54;100963.63;5066774;28;20049;-69
2022/07/29 03:05:21;;;;;;;;;;;;;;;20.75;43.50;100971.31;5093423;28;20059;-69
2022/07/29 03:07:53;;;;;;;10.77;2.60;;;;;;;20.62;44.15;100973.53;5043973;28;19927;-71
2022/07/29 03:10:21;;;;;;;8.32;2.70;;;;;;;20.67;43.64;100973.22;5070248;28;20052;-75
2022/07/29 03:12:49;;;;;;;10.77;2.53;;;;;;;20.53;44.27;100981.38;5095489;28;20530;-72
2022/07/29 03:15:17;;;;;;;5.95;2.55;;;;;;;20.38;44.92;100981.50;5078246;28;20044;-71
2022/07/29 03:17:44;;;;;;;8.95;2.55;;;;;;;20.41;44.94;100983.56;5078059;28;20064;-73
2022/07/29 03:20:12;;;;;;;7.32;2.38;;;;;;;20.52;44.90;100987.34;5074572;28;20075;-72
2022/07/29 03:22:43;;;;;;;8.45;2.72;;;;;;;20.49;45.14;100983.31;5075064;28;20087;-73
2022/07/29 03:25:11;;;;;;;7.35;2.80;;;;;;;20.66;44.85;100984.81;5089627;28;20040;-72
2022/07/29 03:27:39;;;;;;;7.32;2.70;;;;;;;20.59;44.96;100977.06;5094949;28;20051;-73
2022/07/29 03:30:14;;;;;;;8.77;2.80;;;;;;;20.38;45.72;100985.09;5077720;28;20070;-73
2022/07/29 03:32:50;;;;;;;7.75;2.88;;;;;;;20.45;45.24;100973.25;5079443;28;20070;-73
2022/07/29 03:35:19;;;;;;;7.38;2.85;;;;;;;20.59;45.40;100977.06;5080483;28;20055;-73
2022/07/29 03:37:48;;;;;;;6.45;2.95;;;;;;;20.32;46.21;100981.00;5084533;28;20055;-70
2022/07/29 03:40:22;;;;;;;7.03;2.70;;;;;;;20.22;46.51;100978.84;5078332;28;20052;-69
2022/07/29 03:42:54;;;;;;;9.30;3.70;;;;;;;20.27;46.76;100986.09;5073566;28;20060;-72
2022/07/29 03:45:22;;;;;;;10.50;3.15;;;;;;;20.35;46.12;100983.06;5084597;28;20048;-69
2022/07/29 03:47:53;;;;;;;10.77;3.40;;;;;;;20.48;46.10;100983.69;5092496;28;20052;-70
2022/07/29 03:50:28;;;;;;;7.28;2.88;;;;;;;20.48;46.55;100987.28;5086175;28;20059;-72
2022/07/29 03:52:56;;;;;;;8.73;3.15;;;;;;;20.39;46.15;100986.72;5082315;28;20056;-73
2022/07/29 03:55:24;;;;;;;10.38;2.70;;;;;;;20.32;46.25;100992.19;5064947;28;20041;-73
2022/07/29 03:57:51;;;;;;;13.82;3.00;;;;;;;20.26;46.65;100992.88;5089117;28;20419;-70
2022/07/29 04:00:19;;;;;;;8.00;2.80;;;;;;;20.34;46.83;100991.81;5067208;28;20056;-69
2022/07/29 04:02:48;;;;;;;7.25;2.65;;;;;;;20.22;47.02;100995.63;5068004;28;20060;-72
2022/07/29 04:05:16;;;;;;;7.95;2.75;;;;;;;20.27;46.89;101002.88;5094371;28;20059;-73
2022/07/29 04:07:48;;;;;;;11.20;2.67;;;;;;;20.55;46.42;100995.00;5086327;28;20045;-70
2022/07/29 04:10:16;;;;;;;9.77;2.75;;;;;;;20.62;45.84;100997.91;5060534;28;20052;-72
2022/07/29 04:12:57;;;;;;;9.77;3.08;;;;;;;20.57;46.20;101001.03;5088145;28;20048;-69
2022/07/29 04:15:24;;;;;;;5.65;2.72;;;;;;;20.58;45.95;100999.84;5087369;28;20522;-73
2022/07/29 04:17:57;;;;;;;7.88;2.80;;;;;;;20.46;46.34;100997.22;5067872;28;20055;-72
2022/07/29 04:20:24;;;;;;;8.30;2.50;;;;;;;20.39;46.58;101002.69;5075134;28;20060;-73
2022/07/29 04:22:51;;;;;;;8.95;3.03;;;;;;;20.35;46.25;101005.44;5070652;28;20048;-72
2022/07/29 04:25:20;;;;;;;6.95;2.80;;;;;;;20.08;46.97;101001.69;5054938;28;20045;-73
2022/07/29 04:28:00;;;;;;;9.38;2.83;;;;;;;19.93;47.47;100999.81;5054986;28;20392;-70
2022/07/29 04:30:29;;;;;;;9.60;3.10;;;;;;;20.05;47.76;101002.44;5055408;28;20072;-70
2022/07/29 04:32:57;;;;;;;13.02;3.03;;;;;;;20.13;47.35;101007.00;5093696;28;20060;-70
2022/07/29 04:35:24;;;;;;;8.10;3.17;;;;;;;20.11;47.86;101008.56;5093613;28;20348;-70
2022/07/29 04:37:52;;;;;;;6.72;3.10;;;;;;;20.02;47.79;101010.75;5095134;28;20059;-70
2022/07/29 04:40:19;;;;;;;10.38;3.35;;;;;;;19.96;48.11;101006.66;5093257;28;20428;-69
2022/07/29 04:42:46;;;;;;;10.75;3.00;;;;;;;20.03;48.11;101009.59;5059916;28;20056;-70
2022/07/29 04:45:15;;;;;;;12.93;3.00;;;;;;;20.11;47.97;101017.75;5090997;28;20041;-72
2022/07/29 04:47:49;;;;;;;9.20;3.45;;;;;;;20.23;47.63;101016.81;5074904;28;20443;-72
2022/07/29 04:50:17;;;;;;;9.88;2.72;;;;;;;20.11;47.50;101008.56;5073424;28;20557;-72
2022/07/29 04:52:44;;;;;;;9.40;3.20;;;;;;;20.14;47.97;101008.63;5056968;28;20059;-74
2022/07/29 04:55:11;;;;;;;8.90;2.90;;;;;;;20.34;47.17;101009.44;5074558;28;20040;-70
2022/07/29 04:57:39;;;;;;;7.43;2.67;;;;;;;20.31;47.50;101006.56;5072772;28;20079;-73
2022/07/29 05:00:07;;;;;;;9.30;2.60;;;;;;;20.42;46.86;101011.16;5072779;28;20064;-72
2022/07/29 05:02:34;;;;;;;6.88;2.90;;;;;;;20.66;46.29;101007.97;5088485;28;20060;-73
2022/07/29 05:05:02;;;;;;;13.50;3.03;;;;;;;20.96;45.76;101010.88;5094313;28;20391;-73
2022/07/29 05:07:30;;;;;;;9.27;3.17;;;;;;;20.67;46.22;101011.59;5077331;28;20075;-72
2022/07/29 05:09:57;;;;;;;5.60;2.67;;;;;;;20.81;46.61;101020.25;5093503;28;20558;-73
2022/07/29 05:12:25;;;;;;;10.82;3.00;;;;;;;20.55;46.23;101015.41;5092733;28;20055;-73
2022/07/29 05:14:52;;;;;;;8.50;3.53;;;;;;;20.65;46.26;101022.34;5064405;28;20053;-73
2022/07/29 05:17:20;;;;;;;8.35;2.60;;;;;;;20.61;46.26;101018.69;5087225;28;20048;-73
2022/07/29 05:19:47;;;;;;;15.05;3.03;;;;;;;20.43;46.55;101018.41;5094090;28;20609;-73
2022/07/29 05:22:14;;;;;;;9.85;3.15;;;;;;;20.57;46.36;101015.03;5092801;28;20055;-74
2022/07/29 05:24:42;;;;;;;13.93;3.47;;;;;;;20.55;46.19;101012.59;5075033;28;20040;-72
2022/07/29 05:27:09;;;;;;;11.80;3.15;;;;;;;20.34;46.43;101017.00;5080543;28;20044;-73
2022/07/29 05:29:37;;;;;;;15.00;3.42;;;;;;;20.40;46.67;101019.13;5089974;28;20077;-73
2022/07/29 05:32:12;;;;;;;12.68;3.42;;;;;;;20.47;46.87;101024.06;5094662;28;20060;-69
2022/07/29 05:34:40;;;;;;;9.27;3.13;;;;;;;20.71;45.84;101013.25;5074854;28;20044;-71
2022/07/29 05:37:19;;;;;;;12.20;2.85;;;;;;;20.51;45.65;101024.91;5064422;28;20048;-73
2022/07/29 05:39:47;;;;;;;12.52;2.95;;;;;;;20.43;45.55;101020.38;5038086;28;20059;-70
2022/07/29 05:42:16;;;;;;;10.23;2.88;;;;;;;20.37;45.60;101019.03;5070605;28;20059;-73
2022/07/29 05:44:44;;;;;;;16.58;3.17;;;;;;;20.43;44.91;101028.75;5071435;28;20400;-70
2022/07/29 05:47:11;;;;;;;10.82;3.05;;;;;;;20.47;44.45;101032.44;5071465;28;20523;-69
2022/07/29 05:49:39;;;;;;;11.55;2.53;;;;;;;20.46;44.35;101028.00;5051357;28;20518;-71
2022/07/29 05:52:06;;;;;;;15.05;3.40;;;;;;;20.28;44.71;101029.66;5070657;28;20056;-69
2022/07/29 05:54:34;;;;;;;6.75;2.63;;;;;;;21.02;45.24;101038.25;5057958;28;20055;-66
2022/07/29 05:57:03;;;;;;;14.52;3.03;;;;;;;21.39;42.44;101038.41;5050420;28;20041;-65
2022/07/29 05:59:30;;;;;;;9.65;2.70;;;;;;;21.64;41.97;101033.13;5053123;28;20049;-66
2022/07/29 06:01:57;;;;;;;7.55;2.65;;;;;;;21.65;41.61;101043.16;5061984;28;20059;-66
2022/07/29 06:04:26;;;;;;;11.80;3.10;;;;;;;21.78;41.09;101041.75;5055087;28;20052;-64
2022/07/29 06:06:54;;;;;;;8.63;2.65;;;;;;;21.89;41.16;101048.31;5053806;28;20049;-65
2022/07/29 06:09:22;;;;;;;10.20;2.90;;;;;;;21.73;41.89;101042.88;5042779;28;20060;-64
2022/07/29 06:11:50;;;;;;;17.30;3.13;;;;;;;21.64;41.82;101058.34;5059773;28;20064;-66
2022/07/29 06:14:17;;;;;;;11.02;2.63;;;;;;;21.84;41.63;101045.84;5063675;28;20056;-64
2022/07/29 06:16:46;;;;;;;20.25;3.75;;;;;;;21.98;41.09;101048.81;5068185;28;20048;-65
2022/07/29 06:19:13;;;;;;;13.15;2.95;;;;;;;21.89;41.17;101054.72;5077558;28;20059;-63
2022/07/29 06:21:44;;;;;;;14.13;3.10;;;;;;;22.12;40.90;101049.78;5057919;28;20056;-65
2022/07/29 06:24:13;;;;;;;9.88;2.97;;;;;;;22.20;40.31;101045.06;5061893;28;20056;-66
2022/07/29 06:26:41;;;;;;;7.88;2.80;;;;;;;22.08;40.92;101046.16;5061479;28;20045;-67
2022/07/29 06:29:12;;;;;;;11.40;2.60;;;;;;;21.90;41.00;101059.13;5063563;28;20048;-65
2022/07/29 06:31:40;;;;;;;11.32;2.97;;;;;;;22.86;40.14;101056.19;5059846;28;20056;-40
2022/07/29 06:34:08;;;;;;;11.02;3.00;;;;;;;23.69;38.03;101050.78;5063490;28;20067;-41
2022/07/29 06:36:36;;;;;;;8.65;2.45;;;;;;;24.06;37.23;101049.38;5062437;28;20052;-41
2022/07/29 06:39:06;;;;;;;9.25;2.55;;;;;;;24.17;36.88;101046.59;5072215;28;20052;-42
2022/07/29 06:41:34;;;;;;;10.45;2.42;;;;;;;24.24;37.13;101052.25;5061644;28;20047;-41
2022/07/29 06:44:09;;;;;;;12.13;2.80;;;;;;;24.28;36.92;101056.72;5057903;28;20407;-46
2022/07/29 06:46:36;;;;;;;13.13;2.60;;;;;;;24.38;36.96;101057.91;5063809;28;20048;-40
2022/07/29 06:49:04;;;;;;;14.15;2.95;;;;;;;24.27;36.63;101057.88;5062597;28;20045;-40
2022/07/29 06:51:31;;;;;;;8.05;2.60;;;;;;;24.36;36.80;101060.31;5065534;28;20048;-44
2022/07/29 06:54:00;;;;;;;19.65;2.63;;;;;;;24.46;37.00;101065.19;5067007;28;20060;-46
2022/07/29 06:56:41;;;;;;;11.20;2.58;;;;;;;24.56;36.17;101060.78;5066720;28;20048;-42
2022/07/29 06:59:09;;;;;;;19.13;3.23;;;;;;;24.61;36.46;101068.84;5070223;28;20440;-40
2022/07/29 07:01:38;;;;;;;10.43;2.28;;;;;;;24.62;36.30;101057.16;5068476;28;20049;-44
2022/07/29 07:04:05;;;;;;;12.13;2.97;;;;;;;24.47;36.30;101061.97;5065595;28;20056;-42
2022/07/29 07:06:33;;;;;;;8.38;2.40;;;;;;;24.56;36.29;101060.78;5070647;28;20045;-42
2022/07/29 07:09:00;;;;;;;9.02;2.30;;;;;;;24.56;36.21;101066.41;5068975;28;20048;-42
2022/07/29 07:11:28;;;;;;;10.30;2.42;;;;;;;24.60;36.45;101064.41;5068973;28;20059;-44
2022/07/29 07:13:55;;;;;;;10.55;2.30;;;;;;;24.60;35.85;101076.47;5081180;28;20051;-44
2022/07/29 07:16:29;;;;;;;8.40;2.33;;;;;;;24.60;35.92;101067.22;5069132;28;20051;-44
2022/07/29 07:18:56;;;;;;;11.02;2.28;;;;;;;24.55;35.75;101068.41;5066961;28;20048;-42
2022/07/29 07:21:24;;;;;;;9.77;2.40;;;;;;;24.57;35.81;101070.81;5067570;28;20756;-43
2022/07/29 07:23:51;;;;;;;5.85;2.30;;;;;;;24.56;35.41;101074.84;5067555;28;20495;-41
2022/07/29 07:26:18;;;;;;;6.88;2.10;;;;;;;24.65;35.74;101075.28;5069311;28;20044;-43
2022/07/29 07:28:46;;;;;;;7.82;1.92;;;;;;;24.65;35.48;101070.47;5066670;28;20048;-42
2022/07/29 07:31:14;;;;;;;10.48;2.00;;;;;;;24.70;35.25;101063.66;5067307;28;20052;-40
2022/07/29 07:33:41;;;;;;;8.02;2.33;;;;;;;24.66;35.14;101074.88;5090671;28;20511;-52
2022/07/29 07:36:09;;;;;;;9.68;2.40;;;;;;;24.71;35.62;101071.69;5068376;28;20040;-40
2022/07/29 07:38:36;;;;;;;12.65;2.90;;;;;;;24.67;35.62;101072.88;5073941;28;20360;-41
2022/07/29 07:41:03;;;;;;;9.15;2.28;;;;;;;24.77;35.69;101080.56;5069729;28;20055;-42
2022/07/29 07:43:31;;;;;;;5.93;1.95;;;;;;;24.85;35.26;101077.34;5070451;28;20548;-42
2022/07/29 07:45:58;;;;;;;10.07;2.17;;;;;;;24.89;35.51;101074.53;5068537;28;20060;-41
2022/07/29 07:48:26;;;;;;;9.20;2.92;;;;;;;24.93;35.22;101070.50;5068562;28;20044;-43
2022/07/29 07:50:54;;;;;;;10.05;2.47;;;;;;;24.94;35.71;101077.75;5069229;28;20048;-43
2022/07/29 07:53:21;;;;;;;13.40;2.58;;;;;;;25.15;35.08;101076.94;5068191;28;20061;-43
2022/07/29 07:55:48;;;;;;;15.07;3.22;;;;;;;25.07;35.47;101084.59;5069838;28;20518;-42
2022/07/29 07:58:36;;;;;;;9.80;2.63;;;;;;;25.07;35.88;101078.19;5073278;28;20059;-42
2022/07/29 08:01:03;;;;;;;12.50;2.90;;;;;;;25.16;35.58;101087.00;5074852;28;20557;-42
2022/07/29 08:03:31;;;;;;;15.68;3.00;;;;;;;25.02;36.09;101078.59;5051674;28;20056;-41
2022/07/29 08:05:58;;;;;;;8.02;2.20;;;;;;;25.07;36.08;101084.59;5082789;28;20056;-41
2022/07/29 08:08:25;;;;;;;8.70;2.45;;;;;;;25.11;36.29;101087.41;5071008;28;20055;-41
2022/07/29 08:10:52;;;;;;;17.25;2.30;;;;;;;25.25;35.68;101090.22;5072521;28;20060;-44
2022/07/29 08:13:21;;;;;;;10.05;2.88;;;;;;;25.33;35.48;101081.34;5067774;28;20045;-42
2022/07/29 08:15:57;;;;;;;5.85;2.40;;;;;;;25.45;35.33;101091.47;5065808;28;20059;-45
2022/07/29 08:18:26;;;;;;;8.98;2.58;;;;;;;25.52;35.16;101086.59;5071154;28;20048;-43
2022/07/29 08:20:54;;;;;;;10.80;2.50;;;;;;;25.41;35.52;101083.00;5066613;28;20036;-41
2022/07/29 08:23:26;;;;;;;11.43;2.33;;;;;;;25.38;35.04;101086.66;5064178;28;20063;-42
2022/07/29 08:26:13;;;;;;;10.63;2.15;;;;;;;25.20;35.16;101082.19;5066890;28;20048;-41
2022/07/29 08:28:45;;;;;;;9.18;2.33;;;;;;;25.15;35.54;101091.06;5066360;28;20049;-56
2022/07/29 08:31:13;;;;;;;7.20;2.10;;;;;;;25.11;36.13;101091.06;5064666;28;20067;-43
2022/07/29 08:33:40;;;;;;;17.83;2.65;;;;;;;25.05;36.30;101094.69;5070254;28;20048;-52
2022/07/29 08:36:07;;;;;;;8.40;1.98;;;;;;;25.28;35.14;101093.06;5068634;28;20067;-43
2022/07/29 08:38:34;;;;;;;11.57;2.20;;;;;;;25.12;33.74;101089.03;5065936;28;20048;-42
2022/07/29 08:41:02;;;;;;;6.88;2.05;;;;;;;25.01;33.36;101085.41;5069849;28;20060;-40
2022/07/29 08:43:29;;;;;;;10.60;2.38;;;;;;;25.07;34.30;101090.22;5065056;28;20044;-42
2022/07/29 08:45:56;;;;;;;6.68;2.05;;;;;;;25.18;34.12;101095.88;5071539;28;20052;-40
2022/07/29 08:48:24;;;;;;;7.55;2.17;;;;;;;25.07;33.74;101090.22;5070677;28;20045;-39
2022/07/29 08:50:56;;;;;;;9.65;1.88;;;;;;;24.98;34.28;101089.84;5074520;28;20044;-42
2022/07/29 08:53:26;;;;;;;9.23;1.95;;;;;;;25.03;34.29;101083.81;5073163;28;20052;-40
2022/07/29 08:55:54;;;;;;;11.15;2.00;;;;;;;25.37;33.64;101084.22;5058770;28;20051;-43
2022/07/29 08:58:22;;;;;;;7.57;1.92;;;;;;;25.57;33.54;101085.41;5068033;28;20048;-44
2022/07/29 09:00:53;;;;;;;6.57;1.70;;;;;;;25.67;33.20;101092.22;5071299;28;20059;-44
2022/07/29 09:03:29;;;;;;;7.22;1.90;;;;;;;25.59;33.85;101077.34;5070735;28;20044;-44
2022/07/29 09:05:58;;;;;;;7.57;2.03;;;;;;;25.83;33.43;101078.47;5072666;28;20063;-46
2022/07/29 09:08:25;;;;;;;10.10;2.53;;;;;;;25.98;32.73;101071.59;5080340;28;20048;-41
2022/07/29 09:10:53;;;;;;;6.78;1.80;;;;;;;25.83;33.42;101084.13;5079020;28;20123;-40
2022/07/29 09:13:22;;;;;;;14.40;2.30;;;;;;;25.81;33.36;101084.53;5070062;28;20040;-39
2022/07/29 09:15:49;;;;;;;12.05;2.10;;;;;;;26.20;32.65;101076.75;5072061;28;20499;-41
2022/07/29 09:18:36;;;;;;;7.18;2.45;;;;;;;25.92;33.03;101078.84;5069518;28;20056;-40
2022/07/29 09:24:13;;;;;;;6.25;2.40;;;;;;;25.51;33.63;101084.19;5070273;28;20045;-41
2022/07/29 09:26:43;;;;;;;7.65;1.83;;;;;;;25.40;33.87;101074.97;5070841;28;20063;-40
2022/07/29 09:29:19;;;;;;;7.43;2.08;;;;;;;25.54;33.76;101074.94;5073628;28;20395;-40
2022/07/29 09:31:51;;;;;;;8.23;2.10;;;;;;;25.62;33.17;101078.53;5071758;28;20058;-43
2022/07/29 09:34:24;;;;;;;9.63;2.08;;;;;;;25.79;32.72;101072.84;5068645;28;20041;-41
2022/07/29 09:36:54;;;;;;;7.63;2.05;;;;;;;25.82;33.03;101076.88;5065888;28;20052;-42
2022/07/29 09:39:33;;;;;;;4.60;1.83;;;;;;;25.75;32.13;101080.50;5071827;28;20040;-50
2022/07/29 09:42:03;;;;;;;9.73;2.13;;;;;;;25.64;32.54;101085.38;5084548;28;20053;-44
2022/07/29 09:44:46;;;;;;;13.98;2.25;;;;;;;25.48;33.28;101088.66;5089068;28;20056;-50
2022/07/29 09:47:14;;;;;;;3.78;1.50;;;;;;;25.61;32.61;101077.75;5068713;28;20056;-50
2022/07/29 09:50:00;;;;;;;9.13;2.00;;;;;;;25.45;33.70;101080.97;5074177;28;20403;-52
2022/07/29 09:52:29;;;;;;;10.88;1.90;;;;;;;25.61;33.39;101086.22;5075711;28;20518;-53
2022/07/29 09:55:07;;;;;;;6.78;1.90;;;;;;;25.70;32.89;101074.50;5076280;28;20055;-52
2022/07/29 09:57:34;;;;;;;7.78;2.10;;;;;;;25.75;33.07;101076.91;5041962;28;20076;-50
2022/07/29 10:00:08;;;;;;;8.18;1.98;;;;;;;25.71;32.61;101079.72;5076700;28;20371;-50
2022/07/29 10:02:40;;;;;;;11.40;2.30;;;;;;;25.81;33.44;101086.53;5074799;28;20510;-50
2022/07/29 10:05:18;;;;;;;;;;;;;;;25.36;33.39;101086.25;5072678;28;20055;-54
2022/07/29 10:07:56;;;;;;;10.55;1.77;;;;;;;25.44;33.40;101081.38;5075938;28;19924;-50
2022/07/29 10:10:29;;;;;;;9.45;1.73;;;;;;;25.60;33.52;101081.75;5071486;28;20052;-53
2022/07/29 10:13:05;;;;;;;12.57;2.30;;;;;;;25.19;33.20;101089.03;5064724;28;20045;-53
2022/07/29 10:15:40;;;;;;;3.97;1.55;;;;;;;25.37;33.27;101084.22;5076586;28;20511;-54
2022/07/29 10:18:08;;;;;;;7.63;1.75;;;;;;;25.50;33.87;101072.13;5073952;28;20048;-53
2022/07/29 10:20:37;;;;;;;7.22;1.75;;;;;;;25.56;33.68;101084.59;5071820;28;20048;-52
2022/07/29 10:23:05;;;;;;;9.88;2.00;;;;;;;25.36;33.55;101085.41;5068211;28;20048;-55
2022/07/29 10:25:32;;;;;;;17.92;2.25;;;;;;;25.34;34.16;101083.00;5073814;28;20052;-52
2022/07/29 10:28:00;;;;;;;15.15;2.53;;;;;;;25.42;33.71;101081.78;5073298;28;20085;-53
2022/07/29 10:30:27;;;;;;;8.85;2.30;;;;;;;25.45;33.51;101086.59;5071151;28;20057;-53
2022/07/29 10:33:20;;;;;;;11.07;2.63;;;;;;;25.80;33.10;101076.47;5074610;28;20051;-50
2022/07/29 10:35:57;;;;;;;16.60;2.65;;;;;;;25.89;33.00;101085.31;5075429;28;20052;-51
2022/07/29 10:38:43;;;;;;;10.90;2.40;;;;;;;25.96;33.38;101082.47;5071613;28;20400;-52
2022/07/29 10:41:35;;;;;;;9.20;2.55;;;;;;;25.93;33.24;101081.25;5074260;28;20056;-54
2022/07/29 10:44:18;;;;;;;12.07;2.75;;;;;;;25.92;33.03;101076.84;5062918;28;20064;-53
2022/07/29 10:46:51;;;;;;;8.00;2.88;;;;;;;26.25;33.00;101078.34;5057152;28;20047;-59
2022/07/29 10:49:26;;;;;;;8.63;2.40;;;;;;;26.10;33.04;101082.44;5062333;28;20044;-51
2022/07/29 10:52:07;;;;;;;9.93;2.28;;;;;;;26.11;33.44;101086.88;5069298;28;20063;-53
2022/07/29 10:54:34;;;;;;;15.55;2.90;;;;;;;26.01;33.11;101090.53;5067748;28;20059;-56
2022/07/29 10:57:26;;;;;;;9.20;2.83;;;;;;;26.19;32.55;101079.97;5079182;28;20044;-51
2022/07/29 11:00:14;;;;;;;13.80;2.40;;;;;;;25.77;33.46;101075.25;5070855;28;20063;-54
2022/07/29 11:02:45;;;;;;;4.25;1.50;;;;;;;25.80;32.81;101085.75;5078716;28;20570;-54
2022/07/29 11:05:18;;;;;;;7.13;2.13;;;;;;;25.60;33.57;101084.56;5073922;28;20496;-56
2022/07/29 11:08:18;;;;;;;12.70;2.10;;;;;;;25.69;33.22;101089.78;5074044;28;20048;-54
2022/07/29 11:11:18;;;;;;;5.78;1.85;;;;;;;25.69;32.50;101084.16;5069167;28;20044;-55
2022/07/29 11:13:50;;;;;;;6.07;1.90;;;;;;;26.06;32.98;101082.47;5069908;28;20061;-58
2022/07/29 11:16:23;;;;;;;6.82;2.00;;;;;;;25.92;32.91;101079.66;5073723;28;20063;-52
2022/07/29 11:19:11;;;;;;;7.47;2.42;;;;;;;26.07;32.78;101086.88;5069011;28;20048;-52
2022/07/29 11:21:47;;;;;;;5.28;1.85;;;;;;;25.79;33.12;101084.13;5066811;28;20056;-55
2022/07/29 11:24:27;;;;;;;11.40;2.22;;;;;;;25.87;32.46;101082.09;5075626;28;20055;-54
2022/07/29 11:27:16;;;;;;;6.20;2.40;;;;;;;26.05;32.60;101094.97;5074156;28;20067;-54
2022/07/29 11:29:55;;;;;;;6.50;1.75;;;;;;;25.88;32.95;101083.69;5075588;28;20052;-55
2022/07/29 11:32:24;;;;;;;7.70;1.77;;;;;;;25.84;32.69;101100.63;5071641;28;20063;-52
2022/07/29 11:35:17;;;;;;;5.07;1.83;;;;;;;25.82;32.92;101086.13;5066314;28;20048;-55
2022/07/29 11:38:27;;;;;;;6.40;2.17;;;;;;;25.75;33.22;101079.72;5070503;28;20064;-55
2022/07/29 11:41:35;;;;;;;12.05;2.30;;;;;;;26.08;33.17;101073.59;5065592;28;20843;-61
2022/07/29 11:44:03;;;;;;;6.28;2.03;;;;;;;26.66;32.35;101084.94;5047688;28;20059;-54
2022/07/29 11:46:48;;;;;;;19.30;2.60;;;;;;;26.92;31.35;101078.72;5068727;28;20044;-55